Terminal Aerodrome Forecast
Issued by NWS

Home | Current Version | Previous Version | Text Only | Print | Product List | Glossary On
Versions: 1 2 3 4 5 6 7 8 9 10 11 12 13 14 15 16 17 18 19 20 21 22
000
FTUS41 KRLX 091120
TAFCKB
TAF
KCKB 091120Z 0912/1012 24009KT 3/4SM -SHSN BR SCT001 BKN004 OVC008
      TEMPO 0912/0916 2SM -SHSN BKN008 OVC012
     FM091600 24009KT 1SM -SHSN SCT001 OVC010
     FM092200 24009KT 1 1/2SM -SHSN OVC015
     FM100300 26009KT 3SM -SHSN OVC015
     FM100700 25009KT P6SM OVC015
     FM101100 27009KT P6SM OVC025=

USA.gov is the U.S. government's official web portal to all federal, state and local government web resources and services.